Aviation Digital Data Service (ADDS)

Output produced by TAFs form (0154 UTC 22 June 2018)
found at http://www.aviationweather.gov/adds/tafs/
 
METAR text: RJOR 220100Z 15003KT 090V190 CAVOK 26/13 Q1009
Conditions at: RJOR (TOTTORI AIRPORT , JP) observed 0100 UTC 22 June 2018
Temperature: 26.0°C (79°F)
Dewpoint: 13.0°C (55°F) [RH = 45%]
Pressure (altimeter): 29.79 inches Hg (1009.0 mb)
Winds: from the SSE (150 degrees) at 3 MPH (3 knots; 1.6 m/s)
Visibility: 6 or more miles (10+ km)
Ceiling: ceiling and visibility are OK
Clouds: unknown
Weather: no significant weather observed at this time